createdAt,value
2024-01-11T00:02:11.219Z,-9.97
2024-01-11T00:04:41.390Z,-9.85
2024-01-11T00:07:11.478Z,-9.90
2024-01-11T00:09:42.452Z,-9.82
2024-01-11T00:12:14.218Z,-9.77
2024-01-11T00:14:43.139Z,-9.63
2024-01-11T00:17:11.567Z,-9.43
2024-01-11T00:19:40.513Z,-9.33
2024-01-11T00:22:08.870Z,-9.39
2024-01-11T00:24:39.607Z,-9.49
2024-01-11T00:27:12.884Z,-9.37
2024-01-11T00:29:41.613Z,-9.47
2024-01-11T00:32:09.889Z,-9.59
2024-01-11T00:34:38.478Z,-9.57
2024-01-11T00:37:09.736Z,-9.74
2024-01-11T00:39:37.838Z,-9.64
2024-01-11T00:42:06.633Z,-9.75
2024-01-11T00:44:36.354Z,-9.84
2024-01-11T00:47:08.106Z,-9.87
2024-01-11T00:49:37.047Z,-9.91
2024-01-11T00:52:06.097Z,-9.72
2024-01-11T00:54:34.263Z,-9.67
2024-01-11T00:57:02.346Z,-9.81
2024-01-11T00:59:32.221Z,-9.93
2024-01-11T01:02:02.347Z,-9.93
2024-01-11T01:04:30.526Z,-9.77
2024-01-11T01:06:58.612Z,-9.61
2024-01-11T01:09:26.813Z,-9.71
2024-01-11T01:11:55.090Z,-9.88
2024-01-11T01:14:23.272Z,-9.96
2024-01-11T01:16:51.561Z,-9.93
2024-01-11T01:23:59.984Z,-9.41
2024-01-11T01:26:54.467Z,-9.19
2024-01-11T01:29:23.016Z,-9.13
2024-01-11T01:31:51.107Z,-9.01
2024-01-11T01:34:20.198Z,-9.12
2024-01-11T01:36:48.337Z,-9.16
2024-01-11T01:39:18.198Z,-9.02
2024-01-11T01:41:46.187Z,-8.94
2024-01-11T01:44:14.332Z,-9.00
2024-01-11T01:46:43.610Z,-8.93
2024-01-11T01:49:14.126Z,-8.81
2024-01-11T01:51:42.577Z,-8.91
2024-01-11T01:54:10.815Z,-9.09
2024-01-11T01:56:40.449Z,-9.21
2024-01-11T01:59:09.542Z,-9.28
2024-01-11T02:01:38.012Z,-9.29
2024-01-11T02:04:06.865Z,-9.30
2024-01-11T02:06:36.526Z,-9.20
2024-01-11T02:09:05.739Z,-9.32
2024-01-11T02:11:35.552Z,-9.43
2024-01-11T02:14:06.010Z,-9.45
2024-01-11T02:16:34.976Z,-9.45
2024-01-11T02:19:03.395Z,-9.32
2024-01-11T02:21:33.313Z,-9.37
2024-01-11T02:24:08.287Z,-9.31
2024-01-11T02:26:36.873Z,-9.34
2024-01-11T02:29:05.311Z,-9.19
2024-01-11T02:31:37.290Z,-9.24
2024-01-11T02:34:06.162Z,-9.42
2024-01-11T02:36:34.581Z,-9.36
2024-01-11T02:39:03.360Z,-9.25
2024-01-11T02:41:34.834Z,-9.39
2024-01-11T02:44:03.981Z,-9.04
2024-01-11T02:46:32.966Z,-8.81
2024-01-11T02:49:01.647Z,-8.69
2024-01-11T02:51:29.883Z,-8.91
2024-01-11T02:53:59.176Z,-9.19
2024-01-11T02:56:27.499Z,-9.31
2024-01-11T02:58:58.144Z,-9.38
2024-01-11T03:01:26.602Z,-9.42
2024-01-11T03:03:54.787Z,-9.35
2024-01-11T03:06:23.937Z,-9.36
2024-01-11T03:08:52.032Z,-8.99
2024-01-11T03:11:20.376Z,-8.47
2024-01-11T03:13:48.569Z,-8.52
2024-01-11T03:16:17.950Z,-8.81
2024-01-11T03:18:46.166Z,-9.03
2024-01-11T03:21:14.607Z,-9.14
2024-01-11T03:23:42.758Z,-9.18
2024-01-11T03:26:15.559Z,-9.31
2024-01-11T03:28:43.798Z,-9.24
2024-01-11T03:31:12.844Z,-9.00
2024-01-11T03:33:42.854Z,-8.98
2024-01-11T03:36:12.063Z,-8.93
2024-01-11T03:38:40.818Z,-9.08
2024-01-11T03:41:12.734Z,-8.39
2024-01-11T03:43:41.028Z,-8.18
2024-01-11T03:46:08.163Z,-8.12
2024-01-11T03:48:37.189Z,-8.17
2024-01-11T03:51:09.517Z,-8.15
2024-01-11T03:53:39.284Z,-7.92
2024-01-11T03:56:07.761Z,-7.93
2024-01-11T03:58:40.465Z,-7.94
2024-01-11T04:01:11.830Z,-7.86
2024-01-11T04:03:40.289Z,-7.65
2024-01-11T04:06:10.345Z,-7.62
2024-01-11T04:08:38.732Z,-8.01
2024-01-11T04:11:08.157Z,-8.18
2024-01-11T04:13:40.130Z,-8.19
2024-01-11T04:16:08.956Z,-7.90
2024-01-11T04:18:37.248Z,-7.61
2024-01-11T04:21:06.054Z,-7.85
2024-01-11T04:23:38.759Z,-8.09
2024-01-11T04:26:06.895Z,-7.93
2024-01-11T04:28:34.882Z,-7.39
2024-01-11T04:31:02.948Z,-7.22
2024-01-11T04:33:31.166Z,-6.93
2024-01-11T04:35:59.595Z,-6.85
2024-01-11T04:38:27.755Z,-6.82
2024-01-11T04:40:57.638Z,-6.82
2024-01-11T04:43:25.763Z,-7.26
2024-01-11T04:45:54.200Z,-7.71
2024-01-11T04:48:22.378Z,-8.01
2024-01-11T04:50:50.881Z,-8.03
2024-01-11T04:53:19.677Z,-7.63
2024-01-11T04:55:47.794Z,-7.42
2024-01-11T04:58:17.561Z,-7.42
2024-01-11T05:00:45.634Z,-7.43
2024-01-11T05:03:13.773Z,-7.76
2024-01-11T05:05:42.151Z,-8.00
2024-01-11T05:08:10.342Z,-8.16
2024-01-11T05:10:38.498Z,-8.05
2024-01-11T05:13:06.625Z,-8.24
2024-01-11T05:15:36.882Z,-8.41
2024-01-11T05:18:05.890Z,-8.44
2024-01-11T05:20:34.281Z,-8.28
2024-01-11T05:23:02.910Z,-8.20
2024-01-11T05:25:34.742Z,-8.09
2024-01-11T05:28:03.636Z,-7.96
2024-01-11T05:30:32.053Z,-7.87
2024-01-11T05:33:02.232Z,-7.81
2024-01-11T05:35:30.478Z,-7.76
2024-01-11T05:37:58.926Z,-7.57
2024-01-11T05:40:27.148Z,-7.45
2024-01-11T05:42:55.225Z,-7.38
2024-01-11T05:45:29.142Z,-7.41
2024-01-11T05:48:07.213Z,-7.41
2024-01-11T05:50:35.437Z,-7.51
2024-01-11T05:53:03.984Z,-7.58
2024-01-11T05:55:32.178Z,-7.61
2024-01-11T05:58:00.260Z,-7.68
2024-01-11T06:00:28.422Z,-7.72
2024-01-11T06:02:56.548Z,-7.68
2024-01-11T06:05:26.425Z,-7.67
2024-01-11T06:07:54.535Z,-7.84
2024-01-11T06:10:22.684Z,-8.18
2024-01-11T06:12:50.880Z,-8.35
2024-01-11T06:15:19.502Z,-8.19
2024-01-11T06:17:47.734Z,-7.94
2024-01-11T06:20:16.270Z,-8.02
2024-01-11T06:22:46.398Z,-8.11
2024-01-11T06:25:16.103Z,-8.31
2024-01-11T06:27:44.931Z,-8.23
2024-01-11T06:30:14.075Z,-8.11
2024-01-11T06:32:42.204Z,-8.04
2024-01-11T06:35:10.786Z,-8.02
2024-01-11T06:37:39.925Z,-7.91
2024-01-11T06:40:10.395Z,-7.91
2024-01-11T06:42:38.435Z,-7.92
2024-01-11T06:45:07.820Z,-7.89
2024-01-11T06:47:36.062Z,-7.84
2024-01-11T06:50:04.760Z,-7.84
2024-01-11T06:52:32.822Z,-7.86
2024-01-11T06:55:02.116Z,-7.82
2024-01-11T06:57:31.550Z,-7.87
2024-01-11T06:59:59.724Z,-7.94
2024-01-11T07:02:28.024Z,-7.86
2024-01-11T07:04:56.471Z,-7.77
2024-01-11T07:07:24.603Z,-7.60
2024-01-11T07:09:56.223Z,-7.52
2024-01-11T07:12:24.477Z,-7.43
2024-01-11T07:14:54.099Z,-7.41
2024-01-11T07:17:24.056Z,-7.35
2024-01-11T07:19:52.102Z,-7.22
2024-01-11T07:22:20.324Z,-7.20
2024-01-11T07:24:48.406Z,-7.05
2024-01-11T07:27:16.995Z,-7.02
2024-01-11T07:29:45.143Z,-7.00
2024-01-11T07:32:14.796Z,-6.96
2024-01-11T07:34:43.025Z,-6.94
2024-01-11T07:37:11.514Z,-6.92
2024-01-11T07:39:39.634Z,-6.94
2024-01-11T07:42:09.133Z,-6.88
2024-01-11T07:44:37.333Z,-6.78
2024-01-11T07:47:05.716Z,-6.63
2024-01-11T07:49:35.110Z,-6.68
2024-01-11T07:52:03.431Z,-6.83
2024-01-11T07:54:33.212Z,-6.85
2024-01-11T07:57:01.314Z,-6.94
2024-01-11T07:59:29.365Z,-7.04
2024-01-11T08:01:57.684Z,-6.96
2024-01-11T08:04:25.947Z,-7.02
2024-01-11T08:06:55.482Z,-6.99
2024-01-11T08:09:23.572Z,-6.96
2024-01-11T08:11:52.755Z,-6.90
2024-01-11T08:14:21.949Z,-6.76
2024-01-11T08:16:50.173Z,-6.69
2024-01-11T08:19:18.467Z,-6.67
2024-01-11T08:21:46.648Z,-6.60
2024-01-11T08:24:16.065Z,-6.27
2024-01-11T08:26:44.852Z,-5.91
2024-01-11T08:29:13.912Z,-4.74
2024-01-11T08:31:44.955Z,-3.66
2024-01-11T08:34:13.423Z,-4.34
2024-01-11T08:36:41.612Z,-4.94
2024-01-11T08:39:12.689Z,-5.08
2024-01-11T08:41:42.527Z,-2.93
2024-01-11T08:44:12.113Z,-0.52
2024-01-11T08:46:40.320Z,0.08
2024-01-11T08:49:08.896Z,-0.42
2024-01-11T08:51:37.216Z,-1.87
2024-01-11T08:54:10.087Z,-2.79
2024-01-11T08:56:38.437Z,-3.63
2024-01-11T08:59:10.074Z,-4.31
2024-01-11T09:01:38.509Z,-4.37
2024-01-11T09:04:07.494Z,-4.55
2024-01-11T09:06:35.771Z,-4.83
2024-01-11T09:09:03.927Z,-5.15
2024-01-11T09:11:33.094Z,-5.14
2024-01-11T09:14:01.220Z,-5.02
2024-01-11T09:16:31.014Z,-4.88
2024-01-11T09:19:01.281Z,-4.80
2024-01-11T09:21:29.414Z,-4.71
2024-01-11T09:23:57.483Z,-4.45
2024-01-11T09:26:25.719Z,-4.21
2024-01-11T09:28:53.792Z,-3.97
2024-01-11T09:31:21.876Z,-3.85
2024-01-11T09:33:51.745Z,-3.76
2024-01-11T09:36:20.587Z,-3.84
2024-01-11T09:38:49.976Z,-3.62
2024-01-11T09:41:20.122Z,-3.66
2024-01-11T09:43:52.579Z,-3.23
2024-01-11T09:46:22.089Z,-3.23
2024-01-11T09:48:52.854Z,-3.05
2024-01-11T09:51:21.262Z,-3.25
2024-01-11T09:53:52.210Z,-2.97
2024-01-11T09:56:20.922Z,-3.04
2024-01-11T09:58:51.301Z,-3.07
2024-01-11T10:01:20.042Z,-3.11
2024-01-11T10:03:48.400Z,-3.37
2024-01-11T10:06:19.886Z,-3.26
2024-01-11T10:08:48.226Z,-3.39
2024-01-11T10:11:16.759Z,-3.42
2024-01-11T10:13:46.240Z,-3.46
2024-01-11T10:16:16.646Z,-3.49
2024-01-11T10:18:45.618Z,-3.37
2024-01-11T10:21:13.843Z,-3.35
2024-01-11T10:23:44.093Z,-3.17
2024-01-11T10:26:12.185Z,-3.17
2024-01-11T10:28:41.430Z,-3.13
2024-01-11T10:31:09.611Z,-3.20
2024-01-11T10:33:38.893Z,-3.21
2024-01-11T10:36:08.879Z,-3.27
2024-01-11T10:38:39.615Z,-3.10
2024-01-11T10:41:11.065Z,-3.21
2024-01-11T10:43:40.298Z,-2.95
2024-01-11T10:46:09.951Z,-2.98
2024-01-11T10:48:41.179Z,-2.71
2024-01-11T10:51:17.286Z,-2.71
2024-01-11T10:53:47.524Z,-2.66
2024-01-11T10:56:18.221Z,-2.91
2024-01-11T10:58:47.680Z,-3.03
2024-01-11T11:01:16.415Z,-3.01
2024-01-11T11:03:46.080Z,-3.11
2024-01-11T11:06:14.775Z,-3.13
2024-01-11T11:08:44.368Z,-3.02
2024-01-11T11:11:15.129Z,-3.33
2024-01-11T11:13:48.797Z,-3.29
2024-01-11T11:16:17.447Z,-3.13
2024-01-11T11:18:45.834Z,-3.24
2024-01-11T11:21:14.959Z,-2.69
2024-01-11T11:23:43.167Z,-2.60
2024-01-11T11:26:17.799Z,-2.72
2024-01-11T11:28:49.993Z,-2.52
2024-01-11T11:31:36.933Z,-2.89
2024-01-11T11:34:07.459Z,-2.62
2024-01-11T11:36:36.445Z,-2.68
2024-01-11T11:39:05.354Z,-2.87
2024-01-11T11:41:34.310Z,-2.70
2024-01-11T11:44:07.695Z,-2.59
2024-01-11T11:46:36.282Z,-2.56
2024-01-11T11:49:05.090Z,-2.53
2024-01-11T11:51:35.187Z,-2.22
2024-01-11T11:54:04.739Z,-2.10
2024-01-11T11:56:33.164Z,-2.24
2024-01-11T11:59:04.057Z,-1.97
2024-01-11T12:01:34.780Z,-2.17
2024-01-11T12:04:03.904Z,-2.25
2024-01-11T12:06:32.439Z,-2.21
2024-01-11T12:09:00.806Z,-2.12
2024-01-11T12:11:29.893Z,-1.91
2024-01-11T12:13:59.154Z,-1.77
2024-01-11T12:16:28.697Z,-1.78
2024-01-11T12:18:58.550Z,-2.14
2024-01-11T12:21:28.239Z,-2.21
2024-01-11T12:23:57.069Z,-2.08
2024-01-11T12:26:26.311Z,-2.13
2024-01-11T12:28:55.079Z,-2.28
2024-01-11T12:31:24.529Z,-2.30
2024-01-11T12:33:53.543Z,-2.39
2024-01-11T12:36:23.194Z,-2.45
2024-01-11T12:38:53.242Z,-2.44
2024-01-11T12:41:24.307Z,-2.53
2024-01-11T12:43:53.918Z,-2.57
2024-01-11T12:46:22.229Z,-2.50
2024-01-11T12:48:51.282Z,-2.63
2024-01-11T12:51:22.540Z,-2.55
2024-01-11T12:53:54.944Z,-2.60
2024-01-11T12:56:24.458Z,-2.49
2024-01-11T12:58:53.286Z,-2.42
2024-01-11T13:01:22.152Z,-2.46
2024-01-11T13:03:51.319Z,-2.52
2024-01-11T13:06:20.875Z,-2.38
2024-01-11T13:08:49.374Z,-2.25
2024-01-11T13:11:22.223Z,-2.48
2024-01-11T13:13:50.475Z,-2.71
2024-01-11T13:16:20.317Z,-2.83
2024-01-11T13:18:48.864Z,-2.95
2024-01-11T13:21:19.503Z,-3.05
2024-01-11T13:23:48.007Z,-3.17
2024-01-11T13:26:16.511Z,-3.10
2024-01-11T13:28:46.117Z,-3.31
2024-01-11T13:31:14.221Z,-3.40
2024-01-11T13:33:42.780Z,-3.54
2024-01-11T13:36:11.027Z,-3.61
2024-01-11T13:38:39.399Z,-3.71
2024-01-11T13:41:09.490Z,-3.76
2024-01-11T13:43:38.293Z,-3.77
2024-01-11T13:46:07.771Z,-3.74
2024-01-11T13:48:36.602Z,-3.68
2024-01-11T13:51:05.509Z,-3.61
2024-01-11T13:53:34.924Z,-3.55
2024-01-11T13:56:03.500Z,-3.57
2024-01-11T13:58:32.283Z,-3.55
2024-01-11T14:01:00.766Z,-3.60
2024-01-11T14:03:30.611Z,-3.50
2024-01-11T14:05:59.286Z,-3.62
2024-01-11T14:08:27.989Z,-3.72
2024-01-11T14:10:56.346Z,-3.69
2024-01-11T14:13:24.653Z,-3.64
2024-01-11T14:15:53.123Z,-3.62
2024-01-11T14:18:22.336Z,-3.67
2024-01-11T14:20:52.264Z,-3.75
2024-01-11T14:23:20.993Z,-3.78
2024-01-11T14:25:50.213Z,-3.83
2024-01-11T14:28:18.408Z,-3.90
2024-01-11T14:30:47.446Z,-3.91
2024-01-11T14:33:16.030Z,-4.00
2024-01-11T14:35:44.296Z,-4.07
2024-01-11T14:38:13.960Z,-4.20
2024-01-11T14:40:42.961Z,-4.34
2024-01-11T14:43:11.239Z,-4.45
2024-01-11T14:45:39.497Z,-4.53
2024-01-11T14:48:08.397Z,-4.64
2024-01-11T14:50:36.540Z,-4.73
2024-01-11T14:53:06.549Z,-4.78
2024-01-11T14:55:39.211Z,-4.73
2024-01-11T14:58:08.265Z,-4.80
2024-01-11T15:00:36.468Z,-4.83
2024-01-11T15:03:05.952Z,-4.89
2024-01-11T15:05:35.412Z,-4.99
2024-01-11T15:08:04.447Z,-5.10
2024-01-11T15:10:33.448Z,-5.10
2024-01-11T15:13:03.486Z,-5.14
2024-01-11T15:15:32.015Z,-5.18
2024-01-11T15:18:00.699Z,-5.26
2024-01-11T15:20:29.018Z,-5.30
2024-01-11T15:22:57.347Z,-5.34
2024-01-11T15:25:27.911Z,-5.47
2024-01-11T15:27:56.365Z,-5.69
2024-01-11T15:30:26.067Z,-5.67
2024-01-11T15:32:57.842Z,-5.69
2024-01-11T15:35:28.068Z,-5.68
2024-01-11T15:37:56.753Z,-5.67
2024-01-11T15:40:25.111Z,-5.84
2024-01-11T15:42:53.175Z,-5.96
2024-01-11T15:45:23.108Z,-6.00
2024-01-11T15:47:52.959Z,-6.04
2024-01-11T15:50:21.602Z,-6.05
2024-01-11T15:52:49.823Z,-5.93
2024-01-11T15:55:18.102Z,-5.87
2024-01-11T15:57:46.268Z,-5.84
2024-01-11T16:00:15.524Z,-5.93
2024-01-11T16:02:44.395Z,-5.97
2024-01-11T16:05:14.140Z,-6.00
2024-01-11T16:07:42.443Z,-6.00
2024-01-11T16:10:11.822Z,-6.03
2024-01-11T16:12:40.393Z,-6.05
2024-01-11T16:15:09.200Z,-6.01
2024-01-11T16:17:37.621Z,-6.13
2024-01-11T16:20:08.240Z,-6.12
2024-01-11T16:22:38.019Z,-6.04
2024-01-11T16:25:07.623Z,-6.10
2024-01-11T16:27:35.744Z,-5.97
2024-01-11T16:30:04.857Z,-5.93
2024-01-11T16:32:34.281Z,-5.90
2024-01-11T16:35:06.844Z,-5.84
2024-01-11T16:37:35.230Z,-5.81
2024-01-11T16:40:04.944Z,-5.87
2024-01-11T16:42:33.830Z,-5.71
2024-01-11T16:45:02.084Z,-5.75
2024-01-11T16:47:37.052Z,-5.82
2024-01-11T16:50:07.320Z,-5.78
2024-01-11T16:52:35.442Z,-5.83
2024-01-11T16:55:05.559Z,-5.89
2024-01-11T16:57:33.759Z,-5.89
2024-01-11T17:00:04.000Z,-5.95
2024-01-11T17:02:32.792Z,-5.88
2024-01-11T17:05:01.148Z,-5.89
2024-01-11T17:07:29.738Z,-5.95
2024-01-11T17:09:58.287Z,-5.88
2024-01-11T17:12:28.105Z,-5.92
2024-01-11T17:14:57.891Z,-5.95
2024-01-11T17:17:28.013Z,-5.94
2024-01-11T17:19:56.216Z,-5.90
2024-01-11T17:22:24.369Z,-5.91
2024-01-11T17:24:53.340Z,-5.95
2024-01-11T17:27:21.474Z,-5.95
2024-01-11T17:29:51.606Z,-5.96
2024-01-11T17:32:19.830Z,-5.97
2024-01-11T17:34:53.237Z,-6.04
2024-01-11T17:37:22.144Z,-6.02
2024-01-11T17:39:50.543Z,-6.00
2024-01-11T17:42:22.185Z,-6.04
2024-01-11T17:44:51.887Z,-5.93
2024-01-11T17:47:20.503Z,-5.99
2024-01-11T17:49:48.929Z,-5.94
2024-01-11T17:52:17.604Z,-6.03
2024-01-11T17:54:45.858Z,-6.00
2024-01-11T17:57:13.975Z,-6.00
2024-01-11T17:59:44.374Z,-5.97
2024-01-11T18:02:14.162Z,-5.97
2024-01-11T18:04:43.686Z,-6.00
2024-01-11T18:07:12.190Z,-6.07
2024-01-11T18:09:40.495Z,-6.06
2024-01-11T18:12:09.176Z,-6.03
2024-01-11T18:14:37.411Z,-6.08
2024-01-11T18:17:06.013Z,-6.14
2024-01-11T18:19:36.011Z,-6.04
2024-01-11T18:22:04.478Z,-6.14
2024-01-11T18:24:33.323Z,-6.06
2024-01-11T18:27:01.399Z,-6.03
2024-01-11T18:29:29.733Z,-6.02
2024-01-11T18:31:58.096Z,-6.09
2024-01-11T18:34:26.253Z,-6.12
2024-01-11T18:36:55.770Z,-6.06
2024-01-11T18:39:23.971Z,-6.08
2024-01-11T18:41:52.849Z,-6.20
2024-01-11T18:44:21.745Z,-6.20
2024-01-11T18:46:49.762Z,-6.25
2024-01-11T18:49:19.673Z,-6.20
2024-01-11T18:51:48.080Z,-6.28
2024-01-11T18:54:18.576Z,-6.29
2024-01-11T18:56:47.366Z,-6.24
2024-01-11T18:59:15.549Z,-6.23
2024-01-11T19:01:49.008Z,-6.30
2024-01-11T19:04:17.583Z,-6.27
2024-01-11T19:06:46.362Z,-6.28
2024-01-11T19:09:14.708Z,-6.29
2024-01-11T19:11:44.503Z,-6.31
2024-01-11T19:14:15.533Z,-6.30
2024-01-11T19:16:43.733Z,-6.33
2024-01-11T19:19:13.020Z,-6.35
2024-01-11T19:21:41.215Z,-6.34
2024-01-11T19:24:09.675Z,-6.33
2024-01-11T19:26:41.752Z,-6.28
2024-01-11T19:29:11.630Z,-6.32
2024-01-11T19:31:39.740Z,-6.28
2024-01-11T19:34:07.873Z,-6.22
2024-01-11T19:36:39.936Z,-6.20
2024-01-11T19:39:08.453Z,-6.19
2024-01-11T19:41:36.766Z,-6.20
2024-01-11T19:44:04.960Z,-6.21
2024-01-11T19:46:34.409Z,-6.19
2024-01-11T19:49:02.816Z,-6.20
2024-01-11T19:51:32.945Z,-6.24
2024-01-11T19:54:01.158Z,-6.29
2024-01-11T19:56:31.956Z,-6.26
2024-01-11T19:59:00.907Z,-6.24
2024-01-11T20:01:29.333Z,-6.25
2024-01-11T20:04:00.884Z,-6.26
2024-01-11T20:06:29.262Z,-6.25
2024-01-11T20:08:58.103Z,-6.17
2024-01-11T20:11:26.916Z,-6.17
2024-01-11T20:13:55.083Z,-6.15
2024-01-11T20:16:23.711Z,-6.10
2024-01-11T20:18:51.769Z,-6.06
2024-01-11T20:21:21.995Z,-6.06
2024-01-11T20:23:50.616Z,-6.05
2024-01-11T20:26:21.180Z,-6.15
2024-01-11T20:28:51.618Z,-6.29
2024-01-11T20:31:19.721Z,-6.29
2024-01-11T20:33:47.929Z,-6.24
2024-01-11T20:36:16.382Z,-6.15
2024-01-11T20:38:45.872Z,-6.09
2024-01-11T20:41:15.493Z,-6.09
2024-01-11T20:43:45.690Z,-6.04
2024-01-11T20:46:14.736Z,-6.03
2024-01-11T20:48:43.296Z,-6.01
2024-01-11T20:51:14.219Z,-6.03
2024-01-11T20:53:42.392Z,-5.97
2024-01-11T20:56:12.623Z,-6.01
2024-01-11T20:58:41.852Z,-5.97
2024-01-11T21:01:10.063Z,-6.01
2024-01-11T21:03:38.339Z,-6.03
2024-01-11T21:06:07.355Z,-6.07
2024-01-11T21:08:35.920Z,-6.04
2024-01-11T21:11:04.072Z,-5.96
2024-01-11T21:13:33.585Z,-5.96
2024-01-11T21:16:01.683Z,-5.92
2024-01-11T21:18:31.307Z,-5.94
2024-01-11T21:21:00.409Z,-5.90
2024-01-11T21:23:31.068Z,-5.92
2024-01-11T21:25:59.549Z,-5.85
2024-01-11T21:28:27.729Z,-5.83
2024-01-11T21:30:57.392Z,-5.79
2024-01-11T21:33:25.870Z,-5.82
2024-01-11T21:35:54.339Z,-5.86
2024-01-11T21:38:22.337Z,-5.84
2024-01-11T21:40:52.822Z,-5.82
2024-01-11T21:43:20.813Z,-5.84
2024-01-11T21:45:49.007Z,-5.83
2024-01-11T21:48:18.497Z,-5.85
2024-01-11T21:50:46.689Z,-5.87
2024-01-11T21:53:14.813Z,-5.83
2024-01-11T21:55:42.984Z,-5.89
2024-01-11T21:58:11.146Z,-5.86
2024-01-11T22:00:40.062Z,-5.86
2024-01-11T22:03:08.272Z,-5.83
2024-01-11T22:05:38.374Z,-5.85
2024-01-11T22:08:06.465Z,-5.81
2024-01-11T22:10:34.734Z,-5.81
2024-01-11T22:13:03.047Z,-5.78
2024-01-11T22:15:31.332Z,-5.74
2024-01-11T22:17:59.789Z,-5.75
2024-01-11T22:20:28.370Z,-5.71
2024-01-11T22:22:58.512Z,-5.73
2024-01-11T22:25:27.304Z,-5.73
2024-01-11T22:27:56.040Z,-5.73
2024-01-11T22:30:24.432Z,-5.71
2024-01-11T22:32:52.702Z,-5.66
2024-01-11T22:35:21.410Z,-5.70
2024-01-11T22:37:49.663Z,-5.70
2024-01-11T22:40:19.150Z,-5.72
2024-01-11T22:42:47.611Z,-5.62
2024-01-11T22:45:15.785Z,-5.62
2024-01-11T22:47:43.976Z,-5.62
2024-01-11T22:50:12.126Z,-5.58
2024-01-11T22:52:40.558Z,-5.56
2024-01-11T22:55:08.968Z,-5.49
2024-01-11T22:57:38.326Z,-5.48
2024-01-11T23:00:21.908Z,-5.45
2024-01-11T23:02:51.521Z,-5.40
2024-01-11T23:05:20.628Z,-5.37
2024-01-11T23:07:49.365Z,-5.29
2024-01-11T23:10:18.207Z,-5.28
2024-01-11T23:12:48.234Z,-5.23
2024-01-11T23:15:16.344Z,-5.24
2024-01-11T23:17:44.788Z,-5.25
2024-01-11T23:20:13.876Z,-5.26
2024-01-11T23:22:42.142Z,-5.14
2024-01-11T23:25:10.758Z,-5.15
2024-01-11T23:27:38.967Z,-5.14
2024-01-11T23:30:10.558Z,-5.12
2024-01-11T23:32:39.891Z,-5.12
2024-01-11T23:35:08.358Z,-5.11
2024-01-11T23:37:38.057Z,-5.13
2024-01-11T23:40:08.701Z,-5.12
2024-01-11T23:42:36.896Z,-5.11
2024-01-11T23:45:09.125Z,-5.10
2024-01-11T23:47:38.910Z,-5.10
2024-01-11T23:50:08.580Z,-5.07
2024-01-11T23:52:36.652Z,-5.05
2024-01-11T23:55:04.958Z,-5.05
2024-01-11T23:57:33.322Z,-5.07
